Time;durP1;ratioP1;P1;durP2;ratioP2;P2;SDS_P1;SDS_P2;PMS_P1;PMS_P2;Temp;Humidity;BMP_temperature;BMP_pressure;BME280_temperature;BME280_humidity;BME280_pressure;Samples;Min_cycle;Max_cycle;Signal;HPM_P1;HPM_P2
2021/05/06 04:53:30;;;;;;;;;;;;;;;8.47;64.90;97234.23;1829171;76;21007;-67
2021/05/06 04:56:06;;;;;;;;;;;;;;;8.50;64.30;97235.08;1842151;76;20418;-67
2021/05/06 05:09:46;;;;;;;;;;;;;;;8.68;63.58;97239.20;1757842;79;20408;-68
2021/05/06 05:15:06;;;;;;;;;;;;;;;8.74;63.03;97252.62;1798007;77;20758;-67
2021/05/06 05:17:43;;;;;;;;;;;;;;;8.78;62.78;97253.73;1839447;75;20679;-67
2021/05/06 05:20:23;;;;;;;;;;;;;;;8.84;63.60;97254.06;1845479;75;20947;-67
2021/05/06 05:23:30;;;;;;;;;;;;;;;8.93;64.10;97263.08;1853463;75;20518;-69
2021/05/06 05:26:09;;;;;;;;;;;;;;;9.02;63.04;97252.41;1842513;75;20568;-73
2021/05/06 05:28:37;;;;;;;;;;;;;;;9.10;62.74;97249.34;1850260;75;20538;-75
2021/05/06 05:31:05;;;;;;;;;;;;;;;9.21;62.30;97256.30;1828896;76;21149;-73
2021/05/06 05:34:03;;;;;;;;;;;;;;;9.33;62.16;97263.48;1822797;76;21890;-73
2021/05/06 05:36:26;;;;;;;;;;;;;;;9.44;61.56;97263.03;1817689;76;20702;-68
2021/05/06 05:39:18;;;;;;;;;;;;;;;9.49;61.39;97260.48;1818872;76;20468;-66
2021/05/06 05:42:00;;;;;;;;;;;;;;;9.54;61.94;97267.08;1813602;76;20515;-66
2021/05/06 05:45:36;;;;;;;;;;;;;;;9.59;61.95;97261.06;1816389;76;20599;-68
2021/05/06 05:55:26;;;;;;;;;;;;;;;9.61;59.77;97262.93;1782671;78;20594;-69
2021/05/06 05:57:56;;;;;;;;;;;;;;;9.62;60.22;97264.52;1832624;75;20653;-73
2021/05/06 06:00:24;;;;;;;;;;;;;;;9.68;61.16;97273.48;1820737;76;22036;-71
2021/05/06 06:02:54;;;;;;;;;;;;;;;9.77;59.13;97267.27;1827116;76;20182;-71
2021/05/06 06:05:30;;;;;;;;;;;;;;;9.84;57.26;97265.22;1823392;76;20213;-67
2021/05/06 06:07:58;;;;;;;;;;;;;;;9.84;56.21;97263.11;1824450;76;20728;-73
2021/05/06 06:10:26;;;;;;;;;;;;;;;9.79;57.01;97268.61;1823484;76;20486;-67
2021/05/06 06:12:55;;;;;;;;;;;;;;;9.70;57.43;97263.54;1826329;76;22282;-74
2021/05/06 06:15:36;;;;;;;;;;;;;;;9.64;57.77;97271.11;1795305;76;20565;-73
2021/05/06 06:17:53;;;;;;;;;;;;;;;9.57;57.82;97271.83;1809878;76;20125;-70
2021/05/06 06:20:22;;;;;;;;;;;;;;;9.50;58.21;97278.32;1824111;76;20470;-74
2021/05/06 06:22:50;;;;;;;;;;;;;;;9.46;57.28;97274.08;1821887;75;20519;-71
2021/05/06 06:25:18;;;;;;;;;;;;;;;9.46;56.26;97278.02;1807675;76;22157;-71
2021/05/06 06:27:54;;;;;;;;;;;;;;;9.49;56.02;97285.39;1820611;76;20596;-69
2021/05/06 06:30:24;;;;;;;;;;;;;;;9.56;56.07;97289.13;1821123;76;20818;-72
2021/05/06 06:32:53;;;;;;;;;;;;;;;9.60;55.23;97283.64;1823865;76;20473;-69
2021/05/06 06:35:21;;;;;;;;;;;;;;;9.62;54.81;97294.69;1824141;76;20651;-69
2021/05/06 06:37:51;;;;;;;;;;;;;;;9.62;55.02;97288.92;1823346;75;21894;-71
2021/05/06 06:40:19;;;;;;;;;;;;;;;9.67;54.18;97292.89;1819753;77;20329;-72
2021/05/06 06:42:47;;;;;;;;;;;;;;;9.74;53.41;97292.16;1824606;76;20403;-68
2021/05/06 06:45:15;;;;;;;;;;;;;;;9.81;53.34;97286.70;1827800;76;20606;-70
2021/05/06 06:47:44;;;;;;;;;;;;;;;9.88;54.04;97287.28;1826760;76;20448;-70
2021/05/06 06:50:12;;;;;;;;;;;;;;;9.96;54.59;97296.52;1818145;77;21926;-70
2021/05/06 06:52:40;;;;;;;;;;;;;;;10.03;54.62;97291.85;1828745;76;20293;-72
2021/05/06 06:55:21;;;;;;;;;;;;;;;10.14;54.98;97286.95;1821128;76;20379;-71
2021/05/06 06:57:53;;;;;;;;;;;;;;;10.25;55.09;97290.45;1803491;77;21535;-71
2021/05/06 07:00:22;;;;;;;;;;;;;;;10.35;53.61;97291.84;1819528;76;20468;-72
2021/05/06 07:02:52;;;;;;;;;;;;;;;10.41;53.06;97302.64;1794337;77;21332;-71
2021/05/06 07:05:21;;;;;;;;;;;;;;;10.41;52.96;97297.39;1820451;76;20515;-69
2021/05/06 07:07:48;;;;;;;;;;;;;;;10.42;52.93;97294.52;1819695;76;20131;-68
2021/05/06 07:10:17;;;;;;;;;;;;;;;10.47;52.28;97307.66;1823866;76;20465;-65
2021/05/06 07:12:48;;;;;;;;;;;;;;;10.48;52.75;97294.01;1817598;76;20603;-72
2021/05/06 07:15:16;;;;;;;;;;;;;;;10.53;53.47;97291.40;1822171;76;21737;-65
2021/05/06 07:17:44;;;;;;;;;;;;;;;10.61;53.37;97294.06;1802511;77;20575;-67
2021/05/06 07:20:19;;;;;;;;;;;;;;;10.67;52.63;97296.98;1803805;77;20456;-68
2021/05/06 07:22:51;;;;;;;;;;;;;;;10.69;53.21;97298.31;1795130;77;20683;-74
2021/05/06 07:25:22;;;;;;;;;;;;;;;10.77;51.63;97303.61;1794765;76;20752;-71
2021/05/06 07:27:52;;;;;;;;;;;;;;;10.84;51.31;97306.80;1794576;77;21752;-71
2021/05/06 07:30:21;;;;;;;;;;;;;;;10.90;51.74;97303.92;1796501;77;20277;-74
2021/05/06 07:32:51;;;;;;;;;;;;;;;11.01;52.23;97313.18;1792064;77;20385;-73
2021/05/06 07:35:21;;;;;;;;;;;;;;;11.12;51.60;97320.04;1804919;77;20725;-69
2021/05/06 07:37:51;;;;;;;;;;;;;;;11.22;50.95;97307.72;1801982;77;20589;-75
2021/05/06 07:40:23;;;;;;;;;;;;;;;11.30;50.77;97315.64;1803163;77;20953;-69
2021/05/06 07:42:53;;;;;;;;;;;;;;;11.43;51.11;97315.66;1795737;77;20498;-70
2021/05/06 07:45:30;;;;;;;;;;;;;;;11.56;50.26;97319.89;1803182;77;20552;-71
2021/05/06 07:48:00;;;;;;;;;;;;;;;11.70;50.28;97320.17;1816138;77;20618;-75
2021/05/06 07:50:40;;;;;;;;;;;;;;;11.87;50.15;97318.64;1797477;77;20543;-66
2021/05/06 07:53:22;;;;;;;;;;;;;;;12.01;48.67;97323.12;1795880;77;22013;-69
2021/05/06 07:55:57;;;;;;;;;;;;;;;12.05;48.80;97324.16;1778893;77;20464;-70
2021/05/06 07:58:25;;;;;;;;;;;;;;;12.03;48.84;97326.81;1795557;77;20564;-69
2021/05/06 08:00:55;;;;;;;;;;;;;;;11.97;48.55;97317.30;1774839;77;20540;-70
2021/05/06 08:03:24;;;;;;;;;;;;;;;11.91;48.49;97323.63;1800355;77;20506;-72
2021/05/06 08:05:56;;;;;;;;;;;;;;;11.93;49.66;97324.95;1799931;77;21331;-64
2021/05/06 08:08:31;;;;;;;;;;;;;;;12.00;48.93;97326.01;1804261;76;20641;-69
2021/05/06 08:11:02;;;;;;;;;;;;;;;12.07;49.09;97321.27;1726734;77;36699;-69
2021/05/06 08:13:32;;;;;;;;;;;;;;;12.19;49.21;97324.41;1699699;81;20630;-70
2021/05/06 08:16:00;;;;;;;;;;;;;;;12.30;48.86;97322.04;1647275;82;20598;-75
2021/05/06 08:18:30;;;;;;;;;;;;;;;12.39;48.78;97319.66;1689711;81;21841;-71
2021/05/06 08:20:59;;;;;;;;;;;;;;;12.49;49.61;97316.47;1695685;82;20583;-68
2021/05/06 08:23:28;;;;;;;;;;;;;;;12.66;48.17;97316.70;1689150;81;20591;-69
2021/05/06 08:25:59;;;;;;;;;;;;;;;12.72;47.98;97316.94;1692743;82;20667;-68
2021/05/06 08:28:34;;;;;;;;;;;;;;;12.67;47.61;97320.91;1697650;80;20629;-72
2021/05/06 08:31:05;;;;;;;;;;;;;;;12.56;47.37;97317.50;1653933;83;21769;-71
2021/05/06 08:33:53;;;;;;;;;;;;;;;12.45;48.11;97317.27;1659149;85;20222;-71
2021/05/06 08:36:30;;;;;;;;;;;;;;;12.38;49.26;97325.98;1668455;83;20767;-71
2021/05/06 08:39:03;;;;;;;;;;;;;;;12.30;48.76;97322.56;1656423;84;20538;-72
2021/05/06 08:41:31;;;;;;;;;;;;;;;12.26;49.02;97323.61;1662484;83;20676;-70
2021/05/06 08:44:04;;;;;;;;;;;;;;;12.29;49.64;97328.36;1664729;84;22120;-74
2021/05/06 08:46:47;;;;;;;;;;;;;;;12.42;50.17;97317.27;1670340;84;20515;-75
2021/05/06 08:49:10;;;;;;;;;;;;;;;12.59;51.05;97328.05;1664511;83;20135;-73
2021/05/06 08:51:39;;;;;;;;;;;;;;;12.80;52.02;97322.98;1657761;83;20689;-68
2021/05/06 08:54:08;;;;;;;;;;;;;;;13.01;52.31;97319.73;1676934;82;20484;-69
2021/05/06 08:56:38;;;;;;;;;;;;;;;13.22;50.86;97321.25;1694190;81;20734;-71
2021/05/06 08:59:06;;;;;;;;;;;;;;;13.38;50.21;97316.69;1698429;81;20655;-69
2021/05/06 09:01:34;;;;;;;;;;;;;;;13.47;50.09;97315.05;1693586;82;20962;-66
2021/05/06 09:04:03;;;;;;;;;;;;;;;13.54;49.74;97318.17;1691607;82;20586;-69
2021/05/06 09:06:31;;;;;;;;;;;;;;;13.61;50.21;97319.45;1705817;81;20579;-70
2021/05/06 09:09:04;;;;;;;;;;;;;;;13.75;49.88;97320.14;1667818;83;21840;-66
2021/05/06 09:11:32;;;;;;;;;;;;;;;13.90;50.39;97315.52;1703273;82;20589;-68
2021/05/06 09:14:05;;;;;;;;;;;;;;;14.00;49.07;97308.05;1711679;81;20576;-68
2021/05/06 09:16:38;;;;;;;;;;;;;;;14.07;48.75;97312.48;1702350;81;20775;-66
2021/05/06 09:19:09;;;;;;;;;;;;;;;14.12;48.55;97315.07;1691462;82;20489;-73
2021/05/06 09:21:38;;;;;;;;;;;;;;;14.22;48.09;97307.06;1701624;82;21170;-70
2021/05/06 09:24:12;;;;;;;;;;;;;;;14.35;47.74;97307.73;1722262;81;20254;-71
2021/05/06 09:26:40;;;;;;;;;;;;;;;14.45;47.71;97312.96;1686578;83;21086;-70
2021/05/06 09:29:10;;;;;;;;;;;;;;;14.55;48.31;97312.61;1684445;82;20686;-70
2021/05/06 09:31:40;;;;;;;;;;;;;;;14.64;48.30;97315.66;1706034;81;20480;-66
2021/05/06 09:34:09;;;;;;;;;;;;;;;14.76;46.95;97316.08;1693443;81;21993;-67
2021/05/06 09:36:37;;;;;;;;;;;;;;;14.87;46.52;97316.73;1707074;81;20626;-67
2021/05/06 09:39:08;;;;;;;;;;;;;;;14.99;46.27;97317.11;1715647;81;20601;-71
2021/05/06 09:41:37;;;;;;;;;;;;;;;15.00;45.91;97318.69;1693923;82;20601;-70
2021/05/06 09:44:08;;;;;;;;;;;;;;;14.97;45.76;97317.95;1704490;81;20620;-71
2021/05/06 09:46:43;;;;;;;;;;;;;;;15.00;46.40;97305.99;1717760;79;22011;-74
2021/05/06 09:49:12;;;;;;;;;;;;;;;15.11;46.36;97310.89;1721464;81;20610;-72
2021/05/06 09:51:49;;;;;;;;;;;;;;;15.20;46.71;97305.73;1710955;81;20315;-65
2021/05/06 09:54:21;;;;;;;;;;;;;;;15.27;45.92;97312.81;1702452;81;20499;-71
2021/05/06 09:57:03;;;;;;;;;;;;;;;15.32;45.24;97309.30;1696777;82;20552;-70
2021/05/06 09:59:37;;;;;;;;;;;;;;;15.39;45.55;97312.38;1702972;81;39635;-71
2021/05/06 10:02:13;;;;;;;;;;;;;;;15.49;46.01;97316.98;1696764;81;20587;-71
2021/05/06 10:04:44;;;;;;;;;;;;;;;15.70;44.42;97316.21;1689013;83;20216;-72
2021/05/06 10:07:16;;;;;;;;;;;;;;;15.92;45.20;97315.61;1689221;82;20583;-69
2021/05/06 10:09:52;;;;;;;;;;;;;;;16.11;44.17;97314.23;1688134;82;20593;-72
2021/05/06 10:12:21;;;;;;;;;;;;;;;16.20;45.19;97315.15;1689269;82;22018;-67
2021/05/06 10:14:50;;;;;;;;;;;;;;;16.24;44.80;97310.29;1688993;82;20495;-71
2021/05/06 10:17:20;;;;;;;;;;;;;;;16.24;44.07;97313.48;1691483;82;20627;-69
2021/05/06 10:19:49;;;;;;;;;;;;;;;16.16;43.30;97306.98;1654534;85;20660;-69
2021/05/06 10:22:20;;;;;;;;;;;;;;;16.02;43.76;97307.48;1657120;84;20628;-66
2021/05/06 10:24:48;;;;;;;;;;;;;;;15.93;44.46;97308.67;1652268;84;22314;-64
2021/05/06 10:27:19;;;;;;;;;;;;;;;15.94;44.03;97312.11;1645709;84;20333;-68
2021/05/06 10:29:57;;;;;;;;;;;;;;;15.97;43.96;97315.52;1857853;75;20645;-63
2021/05/06 10:32:27;;;;;;;;;;;;;;;15.99;45.53;97317.35;1828654;77;20625;-67
2021/05/06 10:34:58;;;;;;;;;;;;;;;16.04;45.72;97317.27;1826376;77;21879;-69
2021/05/06 10:37:34;;;;;;;;;;;;;;;16.03;42.56;97322.84;1833676;77;20585;-70
2021/05/06 10:40:06;;;;;;;;;;;;;;;15.95;41.76;97320.31;1847946;77;20768;-69
2021/05/06 10:42:35;;;;;;;;;;;;;;;15.86;42.05;97328.13;1835682;77;20567;-65
2021/05/06 10:45:25;;;;;;;;;;;;;;;15.81;42.11;97328.22;1822967;77;20685;-69
2021/05/06 10:47:54;;;;;;;;;;;;;;;15.80;42.84;97330.61;1826688;77;20740;-67
2021/05/06 10:50:34;;;;;;;;;;;;;;;15.80;42.53;97329.28;1823179;77;20596;-67
2021/05/06 10:53:06;;;;;;;;;;;;;;;15.88;42.10;97323.88;1827387;77;20474;-68
2021/05/06 10:55:49;;;;;;;;;;;;;;;16.06;42.00;97315.12;1831150;77;20390;-69
2021/05/06 10:58:27;;;;;;;;;;;;;;;16.26;41.78;97304.70;1819342;77;20609;-72
2021/05/06 11:01:08;;;;;;;;;;;;;;;16.43;41.75;97313.41;1830704;76;22281;-65
2021/05/06 11:03:36;;;;;;;;;;;;;;;16.35;37.36;97309.59;1828559;77;20497;-67
2021/05/06 11:06:04;;;;;;;;;;;;;;;16.08;37.23;97304.20;1822781;77;20484;-62
2021/05/06 11:08:34;;;;;;;;;;;;;;;15.99;38.67;97304.86;1825236;77;20473;-67
2021/05/06 11:11:10;;;;;;;;;;;;;;;16.08;39.78;97303.66;1833867;77;20217;-67
2021/05/06 11:13:59;;;;;;;;;;;;;;;16.27;39.94;97303.09;1831739;77;21880;-67
2021/05/06 11:16:29;;;;;;;;;;;;;;;16.40;39.15;97304.19;1831366;76;20534;-71
2021/05/06 11:19:03;;;;;;;;;;;;;;;16.47;36.19;97299.28;1827783;77;20559;-68
2021/05/06 11:21:36;;;;;;;;;;;;;;;16.45;34.99;97294.80;1830954;77;20543;-67
2021/05/06 11:24:18;;;;;;;;;;;;;;;16.42;34.93;97298.06;1835839;77;20431;-68
2021/05/06 11:27:10;;;;;;;;;;;;;;;16.33;32.98;97299.80;1836357;76;20996;-64
2021/05/06 11:29:40;;;;;;;;;;;;;;;16.22;33.24;97295.73;1831545;77;20509;-63
2021/05/06 11:32:26;;;;;;;;;;;;;;;16.14;34.54;97306.47;1833483;77;20332;-64
2021/05/06 11:34:54;;;;;;;;;;;;;;;16.11;34.21;97315.02;1828732;77;20786;-63
2021/05/06 11:37:29;;;;;;;;;;;;;;;16.03;34.86;97307.73;1830669;77;20595;-67
2021/05/06 11:40:03;;;;;;;;;;;;;;;15.95;35.31;97315.02;1827969;77;22077;-65
2021/05/06 11:42:37;;;;;;;;;;;;;;;15.82;35.22;97311.25;1828707;76;20512;-63
2021/05/06 11:45:09;;;;;;;;;;;;;;;15.70;35.77;97318.07;1823359;77;20468;-62
2021/05/06 11:47:39;;;;;;;;;;;;;;;15.51;36.04;97320.14;1826471;77;20565;-63
2021/05/06 11:50:17;;;;;;;;;;;;;;;15.37;36.66;97312.66;1830575;77;20603;-65
2021/05/06 11:52:46;;;;;;;;;;;;;;;15.32;36.93;97314.06;1826258;77;21973;-67
2021/05/06 11:55:41;;;;;;;;;;;;;;;15.32;37.11;97313.27;1825382;77;20576;-66
2021/05/06 11:58:10;;;;;;;;;;;;;;;15.38;37.03;97320.07;1666870;84;20690;-68
2021/05/06 12:00:41;;;;;;;;;;;;;;;15.45;36.44;97319.17;1712877;81;20511;-70
2021/05/06 12:03:11;;;;;;;;;;;;;;;15.49;37.46;97326.25;1717538;82;20147;-63
2021/05/06 12:05:59;;;;;;;;;;;;;;;15.57;36.92;97323.00;1669320;84;21901;-66
2021/05/06 12:08:32;;;;;;;;;;;;;;;15.73;37.38;97334.70;1713178;81;20214;-64
2021/05/06 12:11:04;;;;;;;;;;;;;;;15.97;37.94;97328.23;1713632;82;20490;-66
2021/05/06 12:13:34;;;;;;;;;;;;;;;16.14;36.25;97317.61;1662015;84;20516;-68
2021/05/06 12:16:14;;;;;;;;;;;;;;;16.28;36.41;97318.47;1666400;84;20484;-63
2021/05/06 12:18:45;;;;;;;;;;;;;;;16.39;34.28;97315.87;1707330;82;22005;-65
2021/05/06 12:21:13;;;;;;;;;;;;;;;16.45;34.03;97314.70;1665762;84;20662;-67
2021/05/06 12:23:44;;;;;;;;;;;;;;;16.38;34.37;97308.98;1667419;84;20258;-69
2021/05/06 12:26:16;;;;;;;;;;;;;;;16.36;34.95;97311.92;1715616;81;20657;-69
2021/05/06 12:28:44;;;;;;;;;;;;;;;16.44;32.87;97305.16;1708335;83;20474;-71
2021/05/06 12:31:12;;;;;;;;;;;;;;;16.58;34.39;97313.92;1704884;83;21834;-69
2021/05/06 12:33:40;;;;;;;;;;;;;;;16.66;34.62;97309.83;1706637;83;20575;-71
2021/05/06 12:36:11;;;;;;;;;;;;;;;16.71;34.23;97300.47;1703704;83;20546;-69
2021/05/06 12:38:59;;;;;;;;;;;;;;;16.73;34.55;97309.69;1666823;84;20498;-64
2021/05/06 12:41:34;;;;;;;;;;;;;;;16.70;34.77;97315.60;1713054;82;20665;-70
2021/05/06 12:44:06;;;;;;;;;;;;;;;16.57;34.81;97318.98;1709633;81;21379;-63
2021/05/06 12:46:35;;;;;;;;;;;;;;;16.45;34.93;97319.21;1709629;82;20297;-68
2021/05/06 12:49:03;;;;;;;;;;;;;;;16.36;35.57;97323.07;1711688;83;20511;-65
2021/05/06 12:51:33;;;;;;;;;;;;;;;16.28;35.70;97319.22;1710444;83;20568;-65
2021/05/06 12:54:11;;;;;;;;;;;;;;;16.24;35.58;97327.52;1712543;82;20326;-67
2021/05/06 12:56:45;;;;;;;;;;;;;;;16.20;35.79;97341.66;1708541;83;22124;-61
2021/05/06 12:59:23;;;;;;;;;;;;;;;16.10;34.76;97337.84;1707298;83;20616;-62
2021/05/06 13:01:52;;;;;;;;;;;;;;;15.96;35.12;97329.84;1708643;81;20503;-63
2021/05/06 13:04:21;;;;;;;;;;;;;;;15.85;35.34;97344.31;1723267;81;20519;-61
2021/05/06 13:07:04;;;;;;;;;;;;;;;15.80;34.45;97332.47;1725963;81;20614;-65
2021/05/06 13:09:38;;;;;;;;;;;;;;;15.77;35.27;97336.50;1725247;81;21995;-69
2021/05/06 13:12:16;;;;;;;;;;;;;;;15.75;35.26;97334.67;1723646;81;20411;-69
2021/05/06 13:14:47;;;;;;;;;;;;;;;15.70;35.50;97337.94;1728555;81;20514;-65
2021/05/06 13:17:28;;;;;;;;;;;;;;;15.60;35.91;97325.08;1726393;81;20487;-65
2021/05/06 13:20:18;;;;;;;;;;;;;;;15.51;35.95;97328.09;1853824;75;20571;-67
2021/05/06 13:23:01;;;;;;;;;;;;;;;15.36;36.40;97333.59;1831024;77;20591;-64
2021/05/06 13:25:53;;;;;;;;;;;;;;;15.30;37.48;97328.11;1837763;77;21351;-63
2021/05/06 13:28:36;;;;;;;;;;;;;;;15.33;37.92;97322.26;1734272;80;20525;-63
2021/05/06 13:31:25;;;;;;;;;;;;;;;15.50;37.78;97320.42;1721565;81;20591;-62
2021/05/06 13:34:17;;;;;;;;;;;;;;;15.71;37.61;97334.19;1686739;82;20675;-65
2021/05/06 13:37:03;;;;;;;;;;;;;;;15.72;37.48;97331.80;1664274;84;20626;-62
2021/05/06 13:39:33;;;;;;;;;;;;;;;15.56;37.98;97335.98;1638470;84;21205;-63
2021/05/06 13:42:02;;;;;;;;;;;;;;;15.44;38.17;97340.11;1704016;82;20668;-65
2021/05/06 13:44:33;;;;;;;;;;;;;;;15.31;38.60;97343.47;1698870;83;20281;-65
2021/05/06 13:47:09;;;;;;;;;;;;;;;15.17;39.24;97349.99;1701842;83;20295;-68
2021/05/06 13:49:38;;;;;;;;;;;;;;;15.10;37.95;97351.66;1696834;82;20589;-64
2021/05/06 13:52:06;;;;;;;;;;;;;;;15.06;37.84;97341.37;1697629;82;21955;-63
2021/05/06 13:54:34;;;;;;;;;;;;;;;15.15;38.53;97339.69;1684119;83;20591;-64
2021/05/06 13:57:03;;;;;;;;;;;;;;;15.34;38.57;97343.70;1685453;83;20609;-64
2021/05/06 13:59:31;;;;;;;;;;;;;;;15.59;39.70;97342.58;1683574;83;20494;-65
2021/05/06 14:01:59;;;;;;;;;;;;;;;15.87;39.03;97344.82;1679110;83;20604;-66
2021/05/06 14:04:27;;;;;;;;;;;;;;;16.02;39.05;97343.27;1675099;83;22087;-62
